Pitts, Georgia
Current Conditions -  °F | °C
As of 1:55 PM on Friday 24 Oct 2014 (Local Time) from KCKF Reporting Station
Clear Clear  
Wind Chill: 74°   Ceiling: Unl
Heat Index: 74°   Visibility: 10mi
Dew Point: 42°   Wind: 5mph
Humidity: 32%   Direction: 320°NW
Pressure: 30.02"   Gusts: NA
Location:  31.94°N, 83.54°W
Report Text: KCKF 241755Z AUTO 32004KT 10SM CLR 23/06 A3002 RMK AO2 6//// T02310056
Loading
Personal Weather Stations






























Interactive Weather Map
Tropical Storm Tracking
New forecast layout! Learn more

10-Day Weather Forecast

Advertisements
Track Severe Weather on mobile